Terminal Aerodrome Forecast
Issued by NWS

Home | Current Version | Previous Version | Text Only | Print | Product List | Glossary On
Versions: 1 2 3 4 5 6 7 8 9 10 11 12 13 14 15 16 17 18 19 20 21 22 23 24 25 26 27 28 29 30 31 32 33 34 35 36 37 38 39 40 41 42 43
306
FTUS46 KOTX 121137
TAFCOE
TAF
KCOE 121137Z 1212/1312 04009KT P6SM VCSH SCT010 OVC035
     FM121600 17005KT 2SM BR OVC025
     FM121900 17007KT P6SM VCSH SCT020 BKN080
     FM130300 20007KT 5SM -RA BR OVC040
      AMD LTD TO CLD AND VIS=

USA.gov is the U.S. government's official web portal to all federal, state and local government web resources and services.